Time;durP1;ratioP1;P1;durP2;ratioP2;P2;SDS_P1;SDS_P2;PMS_P1;PMS_P2;Temp;Humidity;BMP_temperature;BMP_pressure;BME280_temperature;BME280_humidity;BME280_pressure;Samples;Min_cycle;Max_cycle;Signal;HPM_P1;HPM_P2
2022/01/09 00:00:59;;;;;;;1.05;0.95;;;;;;;5.22;100.00;98530.97;5042703;28;20057;-71
2022/01/09 00:03:26;;;;;;;1.20;0.85;;;;;;;5.21;100.00;98532.16;5046346;28;20061;-72
2022/01/09 00:05:52;;;;;;;3.60;1.38;;;;;;;5.27;100.00;98529.72;5045677;28;20081;-75
2022/01/09 00:08:19;;;;;;;2.47;1.23;;;;;;;5.25;100.00;98524.66;5038962;28;20041;-71
2022/01/09 00:10:47;;;;;;;3.55;1.20;;;;;;;5.18;100.00;98516.53;5063535;28;20045;-71
2022/01/09 00:13:14;;;;;;;2.28;1.02;;;;;;;5.24;100.00;98509.38;5037954;28;20042;-72
2022/01/09 00:15:40;;;;;;;1.90;1.20;;;;;;;5.26;100.00;98517.19;5037814;28;20046;-72
2022/01/09 00:18:07;;;;;;;0.80;0.80;;;;;;;5.19;100.00;98490.69;5037036;28;20148;-73
2022/01/09 00:20:33;;;;;;;2.00;1.00;;;;;;;5.20;100.00;98494.97;5043885;28;20536;-72
2022/01/09 00:23:00;;;;;;;2.10;1.13;;;;;;;5.28;100.00;98498.38;5048081;28;20130;-72
2022/01/09 00:25:28;;;;;;;1.90;1.00;;;;;;;5.23;100.00;98496.09;5034762;28;20140;-74
2022/01/09 00:27:54;;;;;;;0.45;0.45;;;;;;;5.16;100.00;98491.50;5032919;28;20080;-72
2022/01/09 00:30:23;;;;;;;0.50;0.50;;;;;;;5.14;100.00;98491.13;5044406;28;20136;-74
2022/01/09 00:32:51;;;;;;;1.15;1.05;;;;;;;5.10;100.00;98498.63;5041323;28;20056;-75
2022/01/09 00:35:18;;;;;;;3.10;1.35;;;;;;;5.15;100.00;98489.97;5046929;28;20102;-72
2022/01/09 00:37:45;;;;;;;1.00;0.77;;;;;;;5.06;100.00;98488.91;5040402;28;20053;-75
2022/01/09 00:40:13;;;;;;;4.13;1.52;;;;;;;5.11;100.00;98475.53;5045771;28;20063;-73
2022/01/09 00:42:41;;;;;;;3.35;1.40;;;;;;;5.11;100.00;98475.53;5047236;28;20044;-74
2022/01/09 00:45:09;;;;;;;1.13;0.50;;;;;;;5.03;100.00;98482.28;5037825;28;20145;-73
2022/01/09 00:47:36;;;;;;;1.73;1.30;;;;;;;5.06;100.00;98473.25;5046409;28;20128;-75
2022/01/09 00:50:03;;;;;;;1.83;1.40;;;;;;;5.10;100.00;98473.22;5042541;28;20080;-72
2022/01/09 00:52:30;;;;;;;2.17;1.30;;;;;;;5.06;100.00;98469.72;5043140;28;20592;-72
2022/01/09 00:54:56;;;;;;;0.70;0.70;;;;;;;5.02;100.00;98469.78;5047352;28;20056;-72
2022/01/09 00:57:23;;;;;;;1.38;1.10;;;;;;;5.05;100.00;98465.44;5042720;28;20069;-72
2022/01/09 00:59:50;;;;;;;2.55;1.38;;;;;;;5.02;100.00;98471.75;5033323;28;20155;-71
2022/01/09 01:02:17;;;;;;;2.17;1.17;;;;;;;5.04;100.00;98467.41;5042736;28;20049;-71
2022/01/09 01:04:45;;;;;;;2.65;1.20;;;;;;;5.05;100.00;98471.72;5035906;28;20064;-72
2022/01/09 01:07:12;;;;;;;1.38;0.95;;;;;;;5.05;100.00;98466.22;5045502;28;20572;-74
2022/01/09 01:09:38;;;;;;;0.88;0.80;;;;;;;5.05;100.00;98479.94;5047522;28;20128;-72
2022/01/09 01:12:05;;;;;;;1.10;0.93;;;;;;;5.03;100.00;98474.06;5049125;28;20096;-77
2022/01/09 01:14:32;;;;;;;0.80;0.70;;;;;;;5.07;100.00;98476.78;5046012;28;20064;-74
2022/01/09 01:16:59;;;;;;;0.75;0.52;;;;;;;5.06;100.00;98478.72;5046050;28;20397;-75
2022/01/09 01:19:26;;;;;;;0.77;0.77;;;;;;;5.05;100.00;98471.72;5049232;28;20061;-73
2022/01/09 01:21:53;;;;;;;2.90;1.42;;;;;;;5.02;100.00;98467.06;5041477;28;20048;-71
2022/01/09 01:24:21;;;;;;;0.73;0.50;;;;;;;5.02;100.00;98469.78;5043444;28;20060;-72
2022/01/09 01:26:48;;;;;;;1.25;0.80;;;;;;;5.04;100.00;98472.88;5049289;28;20112;-72
2022/01/09 01:29:15;;;;;;;2.97;1.20;;;;;;;5.04;100.00;98474.84;5040026;28;20059;-72
2022/01/09 01:31:42;;;;;;;0.70;0.70;;;;;;;4.99;100.00;98470.63;5046088;28;20465;-73
2022/01/09 01:34:12;;;;;;;0.63;0.63;;;;;;;5.02;100.00;98482.72;5047657;28;20056;-74
2022/01/09 01:36:39;;;;;;;1.05;0.95;;;;;;;4.95;100.00;98486.34;5057159;28;20099;-72
2022/01/09 01:39:06;;;;;;;0.50;0.50;;;;;;;4.99;100.00;98487.06;5048982;28;20136;-74
2022/01/09 01:41:32;;;;;;;0.73;0.65;;;;;;;5.00;100.00;98485.84;5047865;28;20044;-72
2022/01/09 01:43:59;;;;;;;0.50;0.50;;;;;;;4.99;100.00;98487.06;5047671;28;20136;-72
2022/01/09 01:46:26;;;;;;;1.98;1.20;;;;;;;5.05;100.00;98498.31;5043205;28;20053;-76
2022/01/09 01:48:52;;;;;;;1.50;0.90;;;;;;;5.02;100.00;98488.97;5045216;28;20057;-72
2022/01/09 01:51:20;;;;;;;0.85;0.80;;;;;;;5.02;100.00;98499.16;5048572;28;20486;-73
2022/01/09 01:53:47;;;;;;;1.45;1.00;;;;;;;5.02;100.00;98491.72;5048007;28;20056;-75
2022/01/09 01:56:19;;;;;;;3.47;1.55;;;;;;;5.03;100.00;98487.03;5046631;28;20774;-72
2022/01/09 01:58:47;;;;;;;1.40;0.93;;;;;;;5.02;100.00;98493.66;5043210;28;20077;-74
2022/01/09 02:01:14;;;;;;;0.80;0.80;;;;;;;5.00;100.00;98496.81;5028904;28;20045;-72
2022/01/09 02:03:41;;;;;;;1.42;1.10;;;;;;;4.97;100.00;98500.38;5029049;28;20071;-75
2022/01/09 02:06:07;;;;;;;1.85;1.10;;;;;;;5.00;100.00;98499.56;5040736;28;20052;-73
2022/01/09 02:08:34;;;;;;;1.35;1.10;;;;;;;4.98;100.00;98501.16;5048114;28;20156;-72
2022/01/09 02:11:01;;;;;;;1.15;0.93;;;;;;;5.00;100.00;98505.03;5044466;28;20103;-73
2022/01/09 02:13:28;;;;;;;1.98;0.90;;;;;;;4.99;100.00;98510.94;5047860;28;20053;-74
2022/01/09 02:15:58;;;;;;;1.88;0.80;;;;;;;4.98;100.00;98501.16;5045232;28;20131;-72
2022/01/09 02:18:25;;;;;;;3.03;0.85;;;;;;;4.99;100.00;98508.19;5046496;28;20053;-74
2022/01/09 02:20:52;;;;;;;0.50;0.50;;;;;;;5.00;100.00;98524.22;5041371;28;20049;-72
2022/01/09 02:23:19;;;;;;;1.55;1.08;;;;;;;5.02;100.00;98524.59;5040222;28;20049;-71
2022/01/09 02:25:47;;;;;;;1.77;1.42;;;;;;;5.04;100.00;98533.16;5028057;28;20778;-72
2022/01/09 02:28:16;;;;;;;2.95;1.25;;;;;;;5.05;100.00;98542.19;5039224;28;20084;-72
2022/01/09 02:30:44;;;;;;;2.45;1.60;;;;;;;5.03;100.00;98545.31;5046739;28;20056;-73
2022/01/09 02:33:15;;;;;;;0.30;0.30;;;;;;;5.01;100.00;98563.38;5047247;28;20220;-72
2022/01/09 02:35:42;;;;;;;0.80;0.60;;;;;;;4.98;100.00;98564.19;5049721;28;20059;-74
2022/01/09 02:38:08;;;;;;;4.13;1.50;;;;;;;5.08;100.00;98564.06;5047192;28;20121;-71
2022/01/09 02:40:35;;;;;;;2.90;1.33;;;;;;;5.05;100.00;98564.88;5041891;28;20083;-72
2022/01/09 02:43:03;;;;;;;1.67;1.08;;;;;;;5.08;100.00;98586.00;5046827;28;20090;-73
2022/01/09 02:45:30;;;;;;;2.13;1.00;;;;;;;5.08;100.00;98586.00;5043194;28;20481;-74
2022/01/09 02:47:59;;;;;;;0.80;0.57;;;;;;;5.08;100.00;98586.00;5048205;28;20478;-74
2022/01/09 02:53:01;;;;;;;0.77;0.70;;;;;;;5.17;100.00;98599.19;5045409;28;20048;-74
2022/01/09 02:55:29;;;;;;;1.45;1.35;;;;;;;5.15;100.00;98596.88;5042512;28;20541;-73
2022/01/09 02:57:59;;;;;;;5.78;2.30;;;;;;;5.23;100.00;98606.53;5043563;28;20049;-72
2022/01/09 03:00:33;;;;;;;3.20;1.90;;;;;;;5.23;100.00;98617.50;5035740;28;20051;-71
2022/01/09 03:03:00;;;;;;;1.50;1.00;;;;;;;5.21;100.00;98610.88;5047028;28;20398;-72
2022/01/09 03:05:29;;;;;;;2.30;1.23;;;;;;;5.24;100.00;98613.56;5037304;28;20501;-75
2022/01/09 03:07:56;;;;;;;7.47;3.35;;;;;;;5.27;100.00;98612.75;5044744;28;20577;-74
2022/01/09 03:10:23;;;;;;;4.35;1.73;;;;;;;5.21;100.00;98622.63;5043172;28;20069;-72
2022/01/09 03:12:52;;;;;;;8.38;2.83;;;;;;;5.27;100.00;98626.44;5039753;28;20045;-71
2022/01/09 03:15:19;;;;;;;2.25;0.95;;;;;;;5.27;100.00;98647.63;5034781;28;20076;-73
2022/01/09 03:17:46;;;;;;;7.68;3.78;;;;;;;5.31;100.00;98635.41;5047247;28;20152;-73
2022/01/09 03:20:24;;;;;;;2.95;1.38;;;;;;;5.34;100.00;98640.06;5045383;28;20057;-71
2022/01/09 03:22:51;;;;;;;6.60;2.72;;;;;;;5.40;100.00;98646.66;5040975;28;20049;-72
2022/01/09 03:25:18;;;;;;;16.98;5.80;;;;;;;5.46;100.00;98638.72;5042167;28;20137;-72
2022/01/09 03:27:48;;;;;;;12.25;4.97;;;;;;;5.50;100.00;98644.19;5046246;28;20132;-74
2022/01/09 03:30:15;;;;;;;9.15;3.08;;;;;;;5.47;100.00;98655.97;5047436;28;20490;-72
2022/01/09 03:32:42;;;;;;;8.30;4.00;;;;;;;5.53;100.00;98671.53;5048518;28;20045;-73
2022/01/09 03:35:14;;;;;;;8.10;3.55;;;;;;;5.56;100.00;98686.44;5039913;28;20052;-74
2022/01/09 03:37:42;;;;;;;6.10;2.33;;;;;;;5.57;100.00;98688.72;5047759;28;20061;-72
2022/01/09 03:40:15;;;;;;;5.97;3.38;;;;;;;5.61;100.00;98696.91;5046882;28;20509;-72
2022/01/09 03:42:42;;;;;;;5.47;2.38;;;;;;;5.60;100.00;98711.84;5034020;28;20270;-73
2022/01/09 03:45:09;;;;;;;1.88;1.38;;;;;;;5.56;100.00;98711.09;5046932;28;20083;-74
2022/01/09 03:47:36;;;;;;;5.43;2.45;;;;;;;5.59;100.00;98718.50;5044919;28;20746;-72
2022/01/09 03:50:08;;;;;;;2.90;1.13;;;;;;;5.55;100.00;98717.75;5047561;28;20061;-73
2022/01/09 03:52:37;;;;;;;1.25;1.15;;;;;;;5.54;100.00;98727.97;5046782;28;20051;-75
2022/01/09 03:55:06;;;;;;;5.95;2.78;;;;;;;5.56;100.00;98733.06;5030820;28;20096;-73
2022/01/09 03:57:33;;;;;;;2.63;1.08;;;;;;;5.53;100.00;98748.34;5037273;28;20135;-73
2022/01/09 04:00:00;;;;;;;2.15;1.30;;;;;;;5.54;100.00;98754.63;5046768;28;20057;-73
2022/01/09 04:02:27;;;;;;;2.28;0.98;;;;;;;5.57;100.00;98759.28;5037522;28;20056;-73
2022/01/09 04:04:53;;;;;;;3.65;1.30;;;;;;;5.54;100.00;98765.59;5045932;28;20044;-74
2022/01/09 04:07:20;;;;;;;4.13;1.67;;;;;;;5.56;100.00;98764.00;5044206;28;20049;-73
2022/01/09 04:09:47;;;;;;;4.53;1.40;;;;;;;5.57;100.00;98775.75;5038791;28;20044;-73
2022/01/09 04:12:17;;;;;;;6.35;1.98;;;;;;;5.59;100.00;98767.88;5034899;28;20041;-73
2022/01/09 04:14:46;;;;;;;1.60;1.20;;;;;;;5.58;100.00;98782.78;5042865;28;20064;-72
2022/01/09 04:20:13;;;;;;;6.28;1.90;;;;;;;5.60;100.00;98802.38;5030863;28;20064;-72
2022/01/09 04:22:40;;;;;;;3.60;1.50;;;;;;;5.60;100.00;98802.38;5045450;28;20049;-73
2022/01/09 04:25:07;;;;;;;7.65;1.33;;;;;;;5.62;100.00;98803.50;5030795;28;20064;-73
2022/01/09 04:27:34;;;;;;;4.20;1.40;;;;;;;5.62;100.00;98816.44;5045469;28;20049;-75
2022/01/09 04:30:02;;;;;;;4.22;1.55;;;;;;;5.63;100.00;98818.00;5049900;28;20084;-73
2022/01/09 04:32:29;;;;;;;7.13;1.55;;;;;;;5.61;100.00;98812.13;5049790;28;20048;-73
2022/01/09 04:34:56;;;;;;;6.35;1.48;;;;;;;5.62;100.00;98830.94;5052431;28;20048;-72
2022/01/09 04:37:23;;;;;;;3.03;1.33;;;;;;;5.65;100.00;98834.81;5052853;28;20057;-74
2022/01/09 04:39:51;;;;;;;7.70;1.48;;;;;;;5.63;100.00;98837.97;5040030;28;20101;-73
2022/01/09 04:42:19;;;;;;;6.28;2.05;;;;;;;5.67;100.00;98846.94;5045901;28;20063;-72
2022/01/09 04:44:45;;;;;;;12.88;4.05;;;;;;;5.74;100.00;98852.34;5050125;28;20071;-73
2022/01/09 04:47:15;;;;;;;10.15;3.40;;;;;;;5.77;100.00;98861.75;5049976;28;20465;-73
2022/01/09 04:49:45;;;;;;;11.98;2.88;;;;;;;5.89;100.00;98863.97;5048352;28;20045;-72
2022/01/09 04:52:16;;;;;;;10.35;2.92;;;;;;;5.95;100.00;98876.06;5046817;28;20398;-74
2022/01/09 04:54:43;;;;;;;4.47;1.55;;;;;;;5.98;100.00;98873.28;5040826;28;20049;-73
2022/01/09 04:57:10;;;;;;;24.25;4.57;;;;;;;6.06;100.00;98885.72;5043243;28;20156;-72
2022/01/09 04:59:37;;;;;;;18.23;3.78;;;;;;;6.12;100.00;98888.78;5031444;28;20053;-73
2022/01/09 05:02:04;;;;;;;7.53;2.88;;;;;;;6.15;100.00;98904.44;5028832;28;20049;-73
2022/01/09 05:04:30;;;;;;;14.15;3.38;;;;;;;6.24;100.00;98910.22;5035871;28;20103;-72
2022/01/09 05:06:57;;;;;;;15.25;3.28;;;;;;;6.25;100.00;98911.78;5044612;28;20056;-72
2022/01/09 05:09:23;;;;;;;18.30;4.07;;;;;;;6.30;100.00;98925.81;5039415;28;20084;-73
2022/01/09 05:11:50;;;;;;;29.73;5.60;;;;;;;6.39;100.00;98930.81;5061585;28;20053;-73
2022/01/09 05:14:16;;;;;;;20.45;4.10;;;;;;;6.36;100.00;98926.94;5046992;28;20564;-72
2022/01/09 05:16:45;;;;;;;17.75;2.42;;;;;;;6.33;100.00;98944.22;5034949;28;20053;-72
2022/01/09 05:19:18;;;;;;;26.95;3.88;;;;;;;6.38;100.00;98943.00;5046646;28;20055;-73
2022/01/09 05:21:46;;;;;;;32.97;4.38;;;;;;;6.39;100.00;98961.81;5037063;28;20080;-73
2022/01/09 05:24:13;;;;;;;37.85;7.13;;;;;;;6.45;100.00;98960.16;5041309;28;20136;-73
2022/01/09 05:26:40;;;;;;;9.80;3.13;;;;;;;6.47;100.00;98984.47;5049402;28;20053;-71
2022/01/09 05:29:06;;;;;;;16.02;4.03;;;;;;;6.52;100.00;98992.25;5048030;28;20053;-73
2022/01/09 05:31:33;;;;;;;16.35;3.97;;;;;;;6.54;100.00;99003.59;5028240;28;20049;-72
2022/01/09 05:34:00;;;;;;;13.02;4.78;;;;;;;6.49;100.00;99015.06;5037546;28;20045;-72
2022/01/09 05:36:26;;;;;;;12.20;2.80;;;;;;;6.46;100.00;99016.66;5053468;28;20053;-73
2022/01/09 05:38:53;;;;;;;10.40;3.00;;;;;;;6.46;100.00;99019.41;5049600;28;20091;-72
2022/01/09 05:41:20;;;;;;;21.15;3.75;;;;;;;6.47;100.00;99025.66;5046948;28;20132;-72
2022/01/09 05:43:46;;;;;;;26.10;6.13;;;;;;;6.45;100.00;99028.81;5047628;28;20045;-72
2022/01/09 05:46:13;;;;;;;19.35;3.65;;;;;;;6.42;100.00;99042.63;5033258;28;20049;-72
2022/01/09 05:48:40;;;;;;;14.32;2.50;;;;;;;6.26;100.00;99061.63;5046065;28;20081;-74
2022/01/09 05:51:06;;;;;;;17.35;1.45;;;;;;;6.28;100.00;99051.03;5048718;28;20049;-70
2022/01/09 05:53:33;;;;;;;9.40;1.52;;;;;;;6.21;100.00;99059.34;5045078;28;20095;-75
2022/01/09 05:55:59;;;;;;;9.77;2.63;;;;;;;6.08;100.00;99064.56;5048274;28;20510;-72
2022/01/09 05:58:26;;;;;;;1.95;0.90;;;;;;;6.04;100.00;99079.50;5045520;28;20127;-71
2022/01/09 06:00:52;;;;;;;8.10;2.20;;;;;;;5.99;100.00;99079.91;5037161;28;20053;-72
2022/01/09 06:03:19;;;;;;;13.88;3.83;;;;;;;6.01;100.00;99077.56;5036536;28;20594;-72
2022/01/09 06:05:46;;;;;;;9.68;2.85;;;;;;;5.82;100.00;99072.63;5048524;28;20041;-71
2022/01/09 06:08:12;;;;;;;8.25;2.67;;;;;;;5.77;100.00;99090.25;5046024;28;20472;-74
2022/01/09 06:10:39;;;;;;;9.65;2.45;;;;;;;5.69;100.00;99094.25;5045231;28;20516;-72
2022/01/09 06:13:05;;;;;;;9.57;3.10;;;;;;;5.54;100.00;99095.56;5035600;28;20152;-72
2022/01/09 06:15:32;;;;;;;2.47;1.20;;;;;;;5.48;100.00;99108.88;5044545;28;20087;-73
2022/01/09 06:17:58;;;;;;;9.27;1.90;;;;;;;5.51;100.00;99109.28;5048105;28;20099;-72
2022/01/09 06:20:25;;;;;;;20.83;5.30;;;;;;;5.56;100.00;99109.63;5043441;28;20076;-72
2022/01/09 06:22:52;;;;;;;4.18;1.90;;;;;;;5.59;100.00;99108.81;5044977;28;20076;-71
2022/01/09 06:25:18;;;;;;;20.80;4.95;;;;;;;5.64;100.00;99111.16;5043074;28;20067;-71
2022/01/09 06:27:45;;;;;;;15.02;4.03;;;;;;;5.66;100.00;99118.97;5042944;28;20045;-75
2022/01/09 06:30:11;;;;;;;20.17;4.32;;;;;;;5.70;100.00;99122.47;5046415;28;20140;-71
2022/01/09 06:32:38;;;;;;;21.95;3.25;;;;;;;5.76;100.00;99140.06;5047008;28;20048;-71
2022/01/09 06:35:06;;;;;;;16.08;4.70;;;;;;;5.78;100.00;99137.69;5052307;28;20052;-73
2022/01/09 06:37:34;;;;;;;5.65;2.10;;;;;;;5.85;100.00;99143.16;5051502;28;20057;-73
2022/01/09 06:40:00;;;;;;;10.10;2.78;;;;;;;5.86;100.00;99150.22;5048159;28;20155;-71
2022/01/09 06:42:27;;;;;;;15.98;3.35;;;;;;;5.89;100.00;99154.91;5046841;28;20048;-74
2022/01/09 06:44:53;;;;;;;17.58;3.83;;;;;;;5.90;100.00;99156.47;5032529;28;20075;-70
2022/01/09 06:47:20;;;;;;;20.95;4.32;;;;;;;5.90;100.00;99161.97;5039421;28;20123;-70
2022/01/09 06:49:47;;;;;;;15.13;3.22;;;;;;;5.90;100.00;99175.69;5047927;28;20144;-71
2022/01/09 06:52:14;;;;;;;7.63;1.92;;;;;;;5.93;100.00;99177.59;5045625;28;20067;-71
2022/01/09 06:54:40;;;;;;;20.17;3.67;;;;;;;5.92;100.00;99178.81;5047628;28;20057;-72
2022/01/09 06:57:07;;;;;;;18.17;3.63;;;;;;;5.93;100.00;99189.38;5048979;28;20747;-71
2022/01/09 06:59:34;;;;;;;27.80;4.78;;;;;;;5.92;100.00;99196.06;5040753;28;20048;-71
2022/01/09 07:02:01;;;;;;;7.57;1.98;;;;;;;5.87;100.00;99196.47;5045079;28;20151;-71
2022/01/09 07:04:27;;;;;;;20.38;4.22;;;;;;;5.93;100.00;99211.34;5038543;28;20514;-71
2022/01/09 07:06:54;;;;;;;9.00;2.22;;;;;;;5.93;100.00;99219.56;5046085;28;20120;-74
2022/01/09 07:09:22;;;;;;;18.83;3.28;;;;;;;5.93;100.00;99214.09;5047352;28;20133;-73
2022/01/09 07:11:49;;;;;;;16.02;2.85;;;;;;;5.94;100.00;99234.09;5045610;28;20076;-73
2022/01/09 07:14:16;;;;;;;15.93;3.72;;;;;;;5.94;100.00;99237.59;5038447;28;20044;-74
2022/01/09 07:16:43;;;;;;;13.60;3.88;;;;;;;5.92;100.00;99252.91;5046210;28;20152;-71
2022/01/09 07:19:09;;;;;;;14.48;3.47;;;;;;;5.85;100.00;99258.44;5037659;28;20053;-71
2022/01/09 07:21:36;;;;;;;18.70;3.60;;;;;;;5.86;100.00;99273.72;5043246;28;20199;-71
2022/01/09 07:24:04;;;;;;;14.75;3.05;;;;;;;5.94;100.00;99262.31;5039444;28;20045;-72
2022/01/09 07:26:31;;;;;;;4.53;1.33;;;;;;;5.92;100.00;99263.88;5047594;28;20045;-73
2022/01/09 07:28:58;;;;;;;12.70;3.30;;;;;;;5.97;100.00;99282.69;5040180;28;20073;-71
2022/01/09 07:31:25;;;;;;;17.83;3.47;;;;;;;5.91;100.00;99276.06;5046393;28;20077;-72
2022/01/09 07:33:52;;;;;;;1.40;1.10;;;;;;;5.88;100.00;99285.09;5044926;28;20049;-74
2022/01/09 07:36:19;;;;;;;20.45;4.00;;;;;;;5.92;100.00;99288.59;5053098;28;20116;-72
2022/01/09 07:38:48;;;;;;;17.27;3.63;;;;;;;5.81;100.00;99296.06;5047435;28;20049;-73
2022/01/09 07:41:15;;;;;;;16.10;4.47;;;;;;;5.86;100.00;99290.19;5044977;28;20057;-73
2022/01/09 07:43:42;;;;;;;16.73;4.20;;;;;;;5.86;100.00;99312.94;5042387;28;20655;-72
2022/01/09 07:46:10;;;;;;;14.32;4.30;;;;;;;5.89;100.00;99316.84;5039714;28;20489;-71
2022/01/09 07:48:37;;;;;;;19.70;4.70;;;;;;;5.82;100.00;99320.41;5043487;28;20142;-71
2022/01/09 07:51:04;;;;;;;20.83;4.55;;;;;;;5.81;100.00;99324.34;5047094;28;20151;-71
2022/01/09 07:53:31;;;;;;;17.75;4.15;;;;;;;5.85;100.00;99329.81;5043362;28;20049;-70
2022/01/09 07:56:00;;;;;;;17.92;3.67;;;;;;;5.87;100.00;99341.19;5041689;28;20052;-71
2022/01/09 07:58:29;;;;;;;17.42;3.90;;;;;;;5.79;100.00;99343.13;5049095;28;20045;-70
2022/01/09 08:00:56;;;;;;;14.13;3.22;;;;;;;5.86;100.00;99361.56;5052364;28;20049;-72
2022/01/09 08:03:23;;;;;;;7.68;3.05;;;;;;;5.85;100.00;99354.50;5037363;28;20133;-71
2022/01/09 08:05:49;;;;;;;17.83;3.50;;;;;;;5.83;100.00;99354.13;5050516;28;20425;-72
2022/01/09 08:08:16;;;;;;;13.10;4.10;;;;;;;5.82;100.00;99363.53;5049894;28;20149;-74
2022/01/09 08:10:43;;;;;;;27.92;7.07;;;;;;;5.87;100.00;99368.63;5050762;28;20065;-76
2022/01/09 08:13:09;;;;;;;15.13;4.45;;;;;;;5.85;100.00;99368.22;5047752;28;20068;-76
2022/01/09 08:15:36;;;;;;;17.65;4.78;;;;;;;5.79;100.00;99370.56;5047610;28;20128;-76
2022/01/09 08:18:02;;;;;;;30.38;5.95;;;;;;;5.88;100.00;99373.72;5050530;28;20143;-75
2022/01/09 08:20:29;;;;;;;14.55;3.97;;;;;;;5.81;100.00;99379.25;5053565;28;20132;-77
2022/01/09 08:22:56;;;;;;;18.50;5.35;;;;;;;5.92;100.00;99390.16;5041579;28;20577;-75
2022/01/09 08:25:22;;;;;;;12.98;3.08;;;;;;;5.85;100.00;99381.97;5049825;28;20049;-75
2022/01/09 08:27:51;;;;;;;9.25;2.60;;;;;;;5.83;100.00;99401.56;5038621;28;20048;-74
2022/01/09 08:30:19;;;;;;;23.38;5.05;;;;;;;5.96;100.00;99399.16;5037475;28;20065;-70
2022/01/09 08:32:47;;;;;;;7.07;2.20;;;;;;;5.89;100.00;99401.94;5047524;28;20132;-76
2022/01/09 08:35:16;;;;;;;9.70;3.10;;;;;;;5.87;100.00;99398.81;5048129;28;20060;-73
2022/01/09 08:37:44;;;;;;;24.45;4.25;;;;;;;5.88;100.00;99403.91;5048103;28;20105;-75
2022/01/09 08:40:13;;;;;;;7.97;3.17;;;;;;;5.87;100.00;99409.81;5048580;28;20057;-76
2022/01/09 08:42:43;;;;;;;23.73;4.95;;;;;;;5.93;100.00;99413.69;5051766;28;20064;-74
2022/01/09 08:45:10;;;;;;;1.85;1.20;;;;;;;5.86;100.00;99406.25;5051450;28;20107;-75
2022/01/09 08:47:38;;;;;;;2.38;1.30;;;;;;;5.82;100.00;99408.25;5053250;28;20053;-75
2022/01/09 08:50:06;;;;;;;8.85;3.28;;;;;;;5.90;100.00;99436.47;5056833;28;20057;-75
2022/01/09 08:52:33;;;;;;;1.23;1.00;;;;;;;5.89;100.00;99429.38;5044460;28;20117;-75
2022/01/09 08:55:00;;;;;;;10.02;3.33;;;;;;;5.85;100.00;99440.38;5040427;28;20128;-75
2022/01/09 08:57:27;;;;;;;18.38;4.05;;;;;;;5.92;100.00;99428.59;5052422;28;20063;-75
2022/01/09 08:59:53;;;;;;;24.88;4.63;;;;;;;5.96;100.00;99443.09;5049103;28;20045;-76
2022/01/09 09:02:20;;;;;;;20.33;4.95;;;;;;;5.80;100.00;99448.22;5046532;28;20049;-77
2022/01/09 09:04:47;;;;;;;5.57;2.28;;;;;;;5.86;100.00;99443.91;5050471;28;20098;-75
2022/01/09 09:07:18;;;;;;;10.75;3.70;;;;;;;5.94;100.00;99448.97;5045257;28;20520;-76
2022/01/09 09:09:45;;;;;;;13.15;2.63;;;;;;;5.94;100.00;99461.94;5050329;28;20049;-76
2022/01/09 09:12:12;;;;;;;7.82;2.65;;;;;;;5.91;100.00;99460.78;5048658;28;20063;-76
2022/01/09 09:14:38;;;;;;;13.23;3.67;;;;;;;5.93;100.00;99466.63;5047488;28;20073;-73
2022/01/09 09:17:05;;;;;;;5.30;3.47;;;;;;;5.89;100.00;99465.88;5054761;28;20072;-75
2022/01/09 09:19:32;;;;;;;19.10;4.50;;;;;;;5.98;100.00;99479.19;5045505;28;20056;-75
2022/01/09 09:21:59;;;;;;;5.65;1.95;;;;;;;5.94;100.00;99487.41;5051041;28;20060;-77
2022/01/09 09:24:25;;;;;;;10.32;2.78;;;;;;;5.96;100.00;99490.56;5040297;28;20585;-77
2022/01/09 09:26:52;;;;;;;10.48;2.67;;;;;;;5.92;100.00;99494.47;5045207;28;20136;-75
2022/01/09 09:29:19;;;;;;;15.23;3.45;;;;;;;5.96;100.00;99501.53;5039905;28;20053;-75
2022/01/09 09:31:46;;;;;;;20.95;4.05;;;;;;;6.03;100.00;99501.53;5052959;28;20502;-77
2022/01/09 09:34:12;;;;;;;15.10;4.82;;;;;;;5.95;100.00;99512.91;5040141;28;20057;-76
2022/01/09 09:36:39;;;;;;;7.78;2.97;;;;;;;5.97;100.00;99518.81;5044658;28;20128;-74
2022/01/09 09:39:08;;;;;;;12.23;2.53;;;;;;;5.98;100.00;99520.34;5044828;28;20060;-77
2022/01/09 09:41:34;;;;;;;8.73;2.50;;;;;;;5.98;100.00;99518.41;5048949;28;20052;-76
2022/01/09 09:44:02;;;;;;;6.90;2.20;;;;;;;6.05;100.00;99521.13;5047665;28;20080;-76
2022/01/09 09:46:29;;;;;;;8.75;3.38;;;;;;;6.03;100.00;99523.47;5051732;28;20068;-75
2022/01/09 09:48:55;;;;;;;14.77;4.32;;;;;;;6.12;100.00;99528.56;5047082;28;20048;-77
2022/01/09 09:51:27;;;;;;;7.75;1.48;;;;;;;6.03;100.00;99528.97;5036199;28;20163;-77
2022/01/09 09:53:54;;;;;;;8.27;2.28;;;;;;;6.11;100.00;99530.53;5050234;28;20091;-76
2022/01/09 09:56:21;;;;;;;20.52;4.55;;;;;;;6.25;100.00;99529.72;5050948;28;20144;-76
2022/01/09 09:58:52;;;;;;;15.55;3.83;;;;;;;6.24;100.00;99542.66;5044865;28;20099;-76
2022/01/09 10:01:27;;;;;;;8.30;2.53;;;;;;;6.19;100.00;99547.78;5040115;28;20072;-76
2022/01/09 10:03:59;;;;;;;13.20;2.92;;;;;;;6.37;100.00;99548.50;5037557;28;20046;-76
2022/01/09 10:06:46;;;;;;;13.88;4.50;;;;;;;6.46;100.00;99548.88;5036708;28;21098;-76
2022/01/09 10:09:16;;;;;;;13.55;3.55;;;;;;;6.46;100.00;99562.63;5039881;28;20244;-76
2022/01/09 10:11:55;;;;;;;14.98;2.92;;;;;;;6.52;100.00;99556.31;5051087;28;20060;-76
2022/01/09 10:14:28;;;;;;;16.58;3.55;;;;;;;6.63;100.00;99557.06;5048652;28;20054;-74
2022/01/09 10:17:12;;;;;;;7.32;2.33;;;;;;;6.63;100.00;99568.06;5036134;28;20453;-75
2022/01/09 10:19:54;;;;;;;13.30;3.65;;;;;;;6.46;100.00;99562.63;5036889;28;20052;-75
2022/01/09 10:22:24;;;;;;;10.25;2.58;;;;;;;6.49;100.00;99570.06;5053431;28;20121;-75
2022/01/09 10:24:55;;;;;;;11.48;2.78;;;;;;;6.51;100.00;99575.97;5051657;28;20045;-76
2022/01/09 10:27:27;;;;;;;7.88;3.03;;;;;;;6.47;100.00;99575.97;5047096;28;20450;-76
2022/01/09 10:29:55;;;;;;;18.67;3.35;;;;;;;6.57;100.00;99579.84;5036463;28;20072;-75
2022/01/09 10:32:28;;;;;;;9.00;3.15;;;;;;;6.51;100.00;99584.19;5047413;28;20099;-75
2022/01/09 10:35:15;;;;;;;14.40;3.97;;;;;;;6.55;100.00;99593.97;5039859;28;20176;-77
2022/01/09 10:37:45;;;;;;;5.88;1.35;;;;;;;6.50;100.00;99586.16;5049219;28;20545;-75
2022/01/09 10:40:21;;;;;;;9.65;3.10;;;;;;;6.56;100.00;99587.31;5027169;28;20060;-77
2022/01/09 10:43:06;;;;;;;5.90;2.35;;;;;;;6.55;100.00;99593.22;5029396;28;20053;-76
2022/01/09 10:45:36;;;;;;;9.43;2.70;;;;;;;6.59;100.00;99602.22;5051458;28;20145;-76
2022/01/09 10:48:10;;;;;;;11.50;3.63;;;;;;;6.69;100.00;99606.91;5045582;28;20124;-77
2022/01/09 10:50:40;;;;;;;7.05;3.13;;;;;;;6.56;100.00;99583.78;5050480;28;20075;-77
2022/01/09 10:53:30;;;;;;;10.95;3.08;;;;;;;6.57;100.00;99602.63;5048016;28;20125;-76
2022/01/09 10:56:05;;;;;;;19.35;3.50;;;;;;;6.59;100.00;99616.75;5032165;28;20751;-77
2022/01/09 10:58:34;;;;;;;9.75;2.75;;;;;;;6.70;100.00;99622.22;5047026;28;20086;-77
2022/01/09 11:01:07;;;;;;;9.40;2.78;;;;;;;6.64;100.00;99624.59;5045983;28;20049;-76
2022/01/09 11:03:33;;;;;;;9.00;2.78;;;;;;;6.67;100.00;99621.06;5045659;28;20045;-75
2022/01/09 11:06:02;;;;;;;11.00;3.35;;;;;;;6.68;100.00;99622.59;5036378;28;20056;-77
2022/01/09 11:08:30;;;;;;;20.42;5.88;;;;;;;6.75;100.00;99630.06;5036582;28;20052;-75
2022/01/09 11:11:01;;;;;;;14.88;3.08;;;;;;;6.81;100.00;99633.94;5052313;28;20072;-76
2022/01/09 11:13:29;;;;;;;14.35;3.58;;;;;;;6.85;100.00;99634.75;5043913;28;20084;-76
2022/01/09 11:18:42;;;;;;;9.52;2.55;;;;;;;7.03;100.00;99646.47;5035469;28;20569;-76
2022/01/09 11:21:09;;;;;;;6.97;2.55;;;;;;;7.03;100.00;99651.97;5033083;28;20158;-77
2022/01/09 11:24:13;;;;;;;5.90;1.50;;;;;;;6.99;100.00;99657.47;5036243;28;20049;-77
2022/01/09 11:27:27;;;;;;;5.78;1.95;;;;;;;7.00;100.00;99647.25;5040505;28;20047;-75
2022/01/09 11:30:19;;;;;;;10.05;2.80;;;;;;;6.96;100.00;99658.25;5037955;28;20055;-76
2022/01/09 11:33:14;;;;;;;7.97;2.28;;;;;;;6.91;100.00;99668.88;5052234;28;20063;-77
2022/01/09 11:35:46;;;;;;;6.80;2.63;;;;;;;6.92;100.00;99678.72;5048924;28;20160;-76
2022/01/09 11:38:43;;;;;;;12.93;3.70;;;;;;;6.96;100.00;99663.00;5051265;28;20110;-77
2022/01/09 11:41:18;;;;;;;9.65;2.47;;;;;;;6.93;100.00;99669.28;5048358;28;20060;-77
2022/01/09 11:44:00;;;;;;;5.45;2.33;;;;;;;6.83;100.00;99667.34;5051926;28;20045;-76